sensor_id;sensor_type;location;lat;lon;timestamp;P1;durP1;ratioP1;P2;durP2;ratioP2
59099;SDS011;44884;52.730;6.964;2024-03-02T00:01:09;3.25;;;2.95;;
59099;SDS011;44884;52.730;6.964;2024-03-02T00:03:38;4.05;;;3.10;;
59099;SDS011;44884;52.730;6.964;2024-03-02T00:06:04;4.28;;;3.88;;
59099;SDS011;44884;52.730;6.964;2024-03-02T00:08:30;4.30;;;3.10;;
59099;SDS011;44884;52.730;6.964;2024-03-02T00:11:00;3.30;;;2.60;;
59099;SDS011;44884;52.730;6.964;2024-03-02T00:13:28;3.33;;;3.03;;
59099;SDS011;44884;52.730;6.964;2024-03-02T00:15:56;3.85;;;3.13;;
59099;SDS011;44884;52.730;6.964;2024-03-02T00:18:26;4.00;;;3.28;;
59099;SDS011;44884;52.730;6.964;2024-03-02T00:20:53;5.03;;;3.45;;
59099;SDS011;44884;52.730;6.964;2024-03-02T00:23:21;5.28;;;3.13;;
59099;SDS011;44884;52.730;6.964;2024-03-02T00:25:47;5.28;;;3.40;;
59099;SDS011;44884;52.730;6.964;2024-03-02T00:28:21;3.47;;;2.90;;
59099;SDS011;44884;52.730;6.964;2024-03-02T00:33:13;4.68;;;3.47;;
59099;SDS011;44884;52.730;6.964;2024-03-02T00:35:39;3.10;;;2.80;;
59099;SDS011;44884;52.730;6.964;2024-03-02T00:38:05;4.95;;;3.35;;
59099;SDS011;44884;52.730;6.964;2024-03-02T00:40:31;6.57;;;3.47;;
59099;SDS011;44884;52.730;6.964;2024-03-02T00:42:58;5.40;;;3.40;;
59099;SDS011;44884;52.730;6.964;2024-03-02T00:45:24;5.80;;;2.83;;
59099;SDS011;44884;52.730;6.964;2024-03-02T00:47:51;4.45;;;3.17;;
59099;SDS011;44884;52.730;6.964;2024-03-02T00:50:17;5.00;;;3.80;;
59099;SDS011;44884;52.730;6.964;2024-03-02T00:52:43;3.83;;;3.28;;
59099;SDS011;44884;52.730;6.964;2024-03-02T00:55:09;3.90;;;3.53;;
59099;SDS011;44884;52.730;6.964;2024-03-02T00:57:35;4.18;;;3.60;;
59099;SDS011;44884;52.730;6.964;2024-03-02T01:00:01;3.40;;;3.03;;
59099;SDS011;44884;52.730;6.964;2024-03-02T01:02:32;4.65;;;4.10;;
59099;SDS011;44884;52.730;6.964;2024-03-02T01:04:58;3.65;;;3.35;;
59099;SDS011;44884;52.730;6.964;2024-03-02T01:07:24;4.28;;;3.40;;
59099;SDS011;44884;52.730;6.964;2024-03-02T01:09:50;4.45;;;3.38;;
59099;SDS011;44884;52.730;6.964;2024-03-02T01:12:16;4.57;;;3.38;;
59099;SDS011;44884;52.730;6.964;2024-03-02T01:14:42;5.00;;;3.28;;
59099;SDS011;44884;52.730;6.964;2024-03-02T01:17:08;5.07;;;3.45;;
59099;SDS011;44884;52.730;6.964;2024-03-02T01:19:34;4.78;;;3.83;;
59099;SDS011;44884;52.730;6.964;2024-03-02T01:22:00;5.72;;;4.03;;
59099;SDS011;44884;52.730;6.964;2024-03-02T01:24:26;4.07;;;3.67;;
59099;SDS011;44884;52.730;6.964;2024-03-02T01:26:52;3.80;;;3.50;;
59099;SDS011;44884;52.730;6.964;2024-03-02T01:29:18;5.22;;;4.00;;
59099;SDS011;44884;52.730;6.964;2024-03-02T01:31:44;4.90;;;3.65;;
59099;SDS011;44884;52.730;6.964;2024-03-02T01:34:11;4.57;;;3.50;;
59099;SDS011;44884;52.730;6.964;2024-03-02T01:36:37;4.20;;;3.80;;
59099;SDS011;44884;52.730;6.964;2024-03-02T01:39:03;4.88;;;3.53;;
59099;SDS011;44884;52.730;6.964;2024-03-02T01:41:33;4.90;;;3.30;;
59099;SDS011;44884;52.730;6.964;2024-03-02T01:43:59;5.07;;;3.80;;
59099;SDS011;44884;52.730;6.964;2024-03-02T01:46:25;6.32;;;3.88;;
59099;SDS011;44884;52.730;6.964;2024-03-02T01:48:51;4.00;;;3.08;;
59099;SDS011;44884;52.730;6.964;2024-03-02T01:51:17;3.65;;;3.30;;
59099;SDS011;44884;52.730;6.964;2024-03-02T01:53:43;4.55;;;3.40;;
59099;SDS011;44884;52.730;6.964;2024-03-02T01:56:09;4.75;;;3.65;;
59099;SDS011;44884;52.730;6.964;2024-03-02T01:58:36;4.22;;;3.33;;
59099;SDS011;44884;52.730;6.964;2024-03-02T02:01:03;4.05;;;3.45;;
59099;SDS011;44884;52.730;6.964;2024-03-02T02:03:29;4.45;;;3.45;;
59099;SDS011;44884;52.730;6.964;2024-03-02T02:05:55;5.10;;;4.45;;
59099;SDS011;44884;52.730;6.964;2024-03-02T02:08:21;3.70;;;3.05;;
59099;SDS011;44884;52.730;6.964;2024-03-02T02:10:47;7.88;;;3.92;;
59099;SDS011;44884;52.730;6.964;2024-03-02T02:13:14;4.28;;;3.50;;
59099;SDS011;44884;52.730;6.964;2024-03-02T02:15:40;3.95;;;3.30;;
59099;SDS011;44884;52.730;6.964;2024-03-02T02:18:06;4.47;;;3.58;;
59099;SDS011;44884;52.730;6.964;2024-03-02T02:20:32;4.15;;;3.50;;
59099;SDS011;44884;52.730;6.964;2024-03-02T02:22:59;3.75;;;3.40;;
59099;SDS011;44884;52.730;6.964;2024-03-02T02:25:25;4.07;;;2.85;;
59099;SDS011;44884;52.730;6.964;2024-03-02T02:27:51;3.92;;;3.45;;
59099;SDS011;44884;52.730;6.964;2024-03-02T02:30:21;4.82;;;3.60;;
59099;SDS011;44884;52.730;6.964;2024-03-02T02:32:47;3.47;;;3.17;;
59099;SDS011;44884;52.730;6.964;2024-03-02T02:35:13;3.90;;;3.33;;
59099;SDS011;44884;52.730;6.964;2024-03-02T02:37:39;5.57;;;3.65;;
59099;SDS011;44884;52.730;6.964;2024-03-02T02:40:06;5.38;;;3.45;;
59099;SDS011;44884;52.730;6.964;2024-03-02T02:42:32;4.57;;;3.40;;
59099;SDS011;44884;52.730;6.964;2024-03-02T02:44:58;5.45;;;3.72;;
59099;SDS011;44884;52.730;6.964;2024-03-02T02:47:25;5.43;;;3.88;;
59099;SDS011;44884;52.730;6.964;2024-03-02T02:49:51;4.25;;;3.45;;
59099;SDS011;44884;52.730;6.964;2024-03-02T02:52:17;5.07;;;3.70;;
59099;SDS011;44884;52.730;6.964;2024-03-02T02:54:44;4.50;;;3.45;;
59099;SDS011;44884;52.730;6.964;2024-03-02T02:57:10;5.05;;;3.63;;
59099;SDS011;44884;52.730;6.964;2024-03-02T02:59:36;3.90;;;3.50;;
59099;SDS011;44884;52.730;6.964;2024-03-02T03:02:02;4.07;;;3.67;;
59099;SDS011;44884;52.730;6.964;2024-03-02T03:04:28;4.53;;;3.67;;
59099;SDS011;44884;52.730;6.964;2024-03-02T03:06:54;4.72;;;4.03;;
59099;SDS011;44884;52.730;6.964;2024-03-02T03:09:20;3.13;;;2.85;;
59099;SDS011;44884;52.730;6.964;2024-03-02T03:11:46;4.45;;;3.28;;
59099;SDS011;44884;52.730;6.964;2024-03-02T03:14:12;4.68;;;3.17;;
59099;SDS011;44884;52.730;6.964;2024-03-02T03:16:38;5.82;;;3.53;;
59099;SDS011;44884;52.730;6.964;2024-03-02T03:19:04;3.55;;;3.08;;
59099;SDS011;44884;52.730;6.964;2024-03-02T03:21:30;2.80;;;2.60;;
59099;SDS011;44884;52.730;6.964;2024-03-02T03:23:56;4.53;;;3.58;;
59099;SDS011;44884;52.730;6.964;2024-03-02T03:26:22;4.78;;;3.47;;
59099;SDS011;44884;52.730;6.964;2024-03-02T03:28:48;3.95;;;3.55;;
59099;SDS011;44884;52.730;6.964;2024-03-02T03:31:14;3.72;;;3.22;;
59099;SDS011;44884;52.730;6.964;2024-03-02T03:33:40;3.78;;;3.30;;
59099;SDS011;44884;52.730;6.964;2024-03-02T03:36:06;4.93;;;3.45;;
59099;SDS011;44884;52.730;6.964;2024-03-02T03:38:32;4.75;;;3.50;;
59099;SDS011;44884;52.730;6.964;2024-03-02T03:40:58;4.45;;;3.45;;
59099;SDS011;44884;52.730;6.964;2024-03-02T03:43:24;5.05;;;3.78;;
59099;SDS011;44884;52.730;6.964;2024-03-02T03:45:50;6.05;;;4.18;;
59099;SDS011;44884;52.730;6.964;2024-03-02T03:48:16;4.15;;;3.40;;
59099;SDS011;44884;52.730;6.964;2024-03-02T03:50:42;4.00;;;3.38;;
59099;SDS011;44884;52.730;6.964;2024-03-02T03:53:08;3.78;;;2.78;;
59099;SDS011;44884;52.730;6.964;2024-03-02T03:55:34;4.25;;;3.17;;
59099;SDS011;44884;52.730;6.964;2024-03-02T03:58:00;3.35;;;2.97;;
59099;SDS011;44884;52.730;6.964;2024-03-02T04:00:26;4.05;;;3.05;;
59099;SDS011;44884;52.730;6.964;2024-03-02T04:02:52;4.50;;;3.45;;
59099;SDS011;44884;52.730;6.964;2024-03-02T04:05:18;7.03;;;3.80;;
59099;SDS011;44884;52.730;6.964;2024-03-02T04:07:44;6.93;;;3.72;;
59099;SDS011;44884;52.730;6.964;2024-03-02T04:10:10;4.05;;;3.60;;
59099;SDS011;44884;52.730;6.964;2024-03-02T04:12:37;3.90;;;3.25;;
59099;SDS011;44884;52.730;6.964;2024-03-02T04:15:06;4.32;;;2.78;;
59099;SDS011;44884;52.730;6.964;2024-03-02T04:17:33;6.50;;;3.35;;
59099;SDS011;44884;52.730;6.964;2024-03-02T04:20:00;5.03;;;3.65;;
59099;SDS011;44884;52.730;6.964;2024-03-02T04:22:29;6.80;;;3.40;;
59099;SDS011;44884;52.730;6.964;2024-03-02T04:24:55;4.00;;;3.40;;
59099;SDS011;44884;52.730;6.964;2024-03-02T04:27:21;3.60;;;2.80;;
59099;SDS011;44884;52.730;6.964;2024-03-02T04:29:47;3.78;;;3.25;;
59099;SDS011;44884;52.730;6.964;2024-03-02T04:32:13;4.63;;;3.50;;
59099;SDS011;44884;52.730;6.964;2024-03-02T04:34:39;4.03;;;3.55;;
59099;SDS011;44884;52.730;6.964;2024-03-02T04:37:05;3.58;;;3.25;;
59099;SDS011;44884;52.730;6.964;2024-03-02T04:39:31;4.53;;;3.08;;
59099;SDS011;44884;52.730;6.964;2024-03-02T04:41:57;3.30;;;3.00;;
59099;SDS011;44884;52.730;6.964;2024-03-02T04:44:24;5.30;;;3.03;;
59099;SDS011;44884;52.730;6.964;2024-03-02T04:46:50;5.28;;;3.17;;
59099;SDS011;44884;52.730;6.964;2024-03-02T04:49:16;3.83;;;3.33;;
59099;SDS011;44884;52.730;6.964;2024-03-02T04:51:42;3.40;;;2.95;;
59099;SDS011;44884;52.730;6.964;2024-03-02T04:54:08;3.72;;;2.60;;
59099;SDS011;44884;52.730;6.964;2024-03-02T04:56:34;4.30;;;3.35;;
59099;SDS011;44884;52.730;6.964;2024-03-02T04:59:09;4.03;;;3.53;;
59099;SDS011;44884;52.730;6.964;2024-03-02T05:01:35;4.40;;;3.22;;
59099;SDS011;44884;52.730;6.964;2024-03-02T05:04:02;4.93;;;3.25;;
59099;SDS011;44884;52.730;6.964;2024-03-02T05:06:28;3.75;;;3.33;;
59099;SDS011;44884;52.730;6.964;2024-03-02T05:08:55;4.07;;;3.22;;
59099;SDS011;44884;52.730;6.964;2024-03-02T05:11:21;3.80;;;3.33;;
59099;SDS011;44884;52.730;6.964;2024-03-02T05:14:04;4.38;;;3.50;;
59099;SDS011;44884;52.730;6.964;2024-03-02T05:16:33;3.70;;;3.10;;
59099;SDS011;44884;52.730;6.964;2024-03-02T05:19:00;3.78;;;2.75;;
59099;SDS011;44884;52.730;6.964;2024-03-02T05:21:26;3.60;;;2.95;;
59099;SDS011;44884;52.730;6.964;2024-03-02T05:23:52;5.68;;;3.05;;
59099;SDS011;44884;52.730;6.964;2024-03-02T05:26:17;3.63;;;3.08;;
59099;SDS011;44884;52.730;6.964;2024-03-02T05:28:43;4.82;;;3.45;;
59099;SDS011;44884;52.730;6.964;2024-03-02T05:31:10;5.72;;;3.85;;
59099;SDS011;44884;52.730;6.964;2024-03-02T05:33:40;3.63;;;3.25;;
59099;SDS011;44884;52.730;6.964;2024-03-02T05:36:06;3.55;;;3.25;;
59099;SDS011;44884;52.730;6.964;2024-03-02T05:38:34;4.43;;;2.92;;
59099;SDS011;44884;52.730;6.964;2024-03-02T05:41:00;3.67;;;3.30;;
59099;SDS011;44884;52.730;6.964;2024-03-02T05:43:26;3.55;;;2.92;;
59099;SDS011;44884;52.730;6.964;2024-03-02T05:45:52;4.70;;;3.30;;
59099;SDS011;44884;52.730;6.964;2024-03-02T05:48:18;3.97;;;3.58;;
59099;SDS011;44884;52.730;6.964;2024-03-02T05:50:44;3.25;;;2.88;;
59099;SDS011;44884;52.730;6.964;2024-03-02T05:53:10;4.85;;;3.67;;
59099;SDS011;44884;52.730;6.964;2024-03-02T05:55:36;3.28;;;2.97;;
59099;SDS011;44884;52.730;6.964;2024-03-02T05:58:02;3.38;;;3.08;;
59099;SDS011;44884;52.730;6.964;2024-03-02T06:00:31;3.38;;;2.75;;
59099;SDS011;44884;52.730;6.964;2024-03-02T06:02:57;3.80;;;2.95;;
59099;SDS011;44884;52.730;6.964;2024-03-02T06:05:23;5.43;;;3.35;;
59099;SDS011;44884;52.730;6.964;2024-03-02T06:07:50;3.33;;;3.03;;
59099;SDS011;44884;52.730;6.964;2024-03-02T06:10:16;3.33;;;3.03;;
59099;SDS011;44884;52.730;6.964;2024-03-02T06:12:42;3.65;;;3.22;;
59099;SDS011;44884;52.730;6.964;2024-03-02T06:15:09;3.47;;;3.17;;
59099;SDS011;44884;52.730;6.964;2024-03-02T06:17:36;5.38;;;3.20;;
59099;SDS011;44884;52.730;6.964;2024-03-02T06:20:02;3.63;;;3.33;;
59099;SDS011;44884;52.730;6.964;2024-03-02T06:22:28;3.42;;;3.13;;
59099;SDS011;44884;52.730;6.964;2024-03-02T06:24:54;3.55;;;3.10;;
59099;SDS011;44884;52.730;6.964;2024-03-02T06:27:20;4.25;;;3.63;;
59099;SDS011;44884;52.730;6.964;2024-03-02T06:29:46;3.97;;;3.25;;
59099;SDS011;44884;52.730;6.964;2024-03-02T06:32:13;3.13;;;2.40;;
59099;SDS011;44884;52.730;6.964;2024-03-02T06:34:39;3.33;;;2.92;;
59099;SDS011;44884;52.730;6.964;2024-03-02T06:37:05;3.05;;;2.67;;
59099;SDS011;44884;52.730;6.964;2024-03-02T06:39:31;4.25;;;3.50;;
59099;SDS011;44884;52.730;6.964;2024-03-02T06:41:59;3.75;;;3.20;;
59099;SDS011;44884;52.730;6.964;2024-03-02T06:44:25;3.50;;;2.88;;
59099;SDS011;44884;52.730;6.964;2024-03-02T06:46:51;3.90;;;2.97;;
59099;SDS011;44884;52.730;6.964;2024-03-02T06:49:17;4.15;;;3.00;;
59099;SDS011;44884;52.730;6.964;2024-03-02T06:51:43;8.10;;;3.78;;
59099;SDS011;44884;52.730;6.964;2024-03-02T06:54:09;3.40;;;3.10;;
59099;SDS011;44884;52.730;6.964;2024-03-02T06:56:35;3.10;;;2.80;;
59099;SDS011;44884;52.730;6.964;2024-03-02T06:59:03;5.10;;;3.22;;
59099;SDS011;44884;52.730;6.964;2024-03-02T07:01:29;4.03;;;3.30;;
59099;SDS011;44884;52.730;6.964;2024-03-02T07:03:55;3.33;;;3.03;;
59099;SDS011;44884;52.730;6.964;2024-03-02T07:06:21;5.03;;;3.38;;
59099;SDS011;44884;52.730;6.964;2024-03-02T07:08:47;4.13;;;3.17;;
59099;SDS011;44884;52.730;6.964;2024-03-02T07:11:13;3.45;;;2.88;;
59099;SDS011;44884;52.730;6.964;2024-03-02T07:13:39;5.35;;;3.58;;
59099;SDS011;44884;52.730;6.964;2024-03-02T07:16:05;3.40;;;2.75;;
59099;SDS011;44884;52.730;6.964;2024-03-02T07:18:52;5.47;;;3.40;;
59099;SDS011;44884;52.730;6.964;2024-03-02T07:21:20;3.83;;;3.35;;
59099;SDS011;44884;52.730;6.964;2024-03-02T07:23:47;4.03;;;3.25;;
59099;SDS011;44884;52.730;6.964;2024-03-02T07:26:13;3.35;;;3.00;;
59099;SDS011;44884;52.730;6.964;2024-03-02T07:28:40;3.80;;;3.17;;
59099;SDS011;44884;52.730;6.964;2024-03-02T07:31:06;4.05;;;3.55;;
59099;SDS011;44884;52.730;6.964;2024-03-02T07:33:32;3.80;;;3.30;;
59099;SDS011;44884;52.730;6.964;2024-03-02T07:35:59;3.13;;;2.88;;
59099;SDS011;44884;52.730;6.964;2024-03-02T07:38:26;5.07;;;3.53;;
59099;SDS011;44884;52.730;6.964;2024-03-02T07:40:53;4.43;;;3.60;;
59099;SDS011;44884;52.730;6.964;2024-03-02T07:43:20;4.50;;;3.53;;
59099;SDS011;44884;52.730;6.964;2024-03-02T07:45:47;2.92;;;2.63;;
59099;SDS011;44884;52.730;6.964;2024-03-02T07:48:13;4.18;;;3.45;;
59099;SDS011;44884;52.730;6.964;2024-03-02T07:50:39;4.57;;;3.50;;
59099;SDS011;44884;52.730;6.964;2024-03-02T07:53:05;4.60;;;3.65;;
59099;SDS011;44884;52.730;6.964;2024-03-02T07:55:32;4.95;;;3.63;;
59099;SDS011;44884;52.730;6.964;2024-03-02T07:57:59;5.03;;;2.83;;
59099;SDS011;44884;52.730;6.964;2024-03-02T08:00:26;5.13;;;3.50;;
59099;SDS011;44884;52.730;6.964;2024-03-02T08:02:52;3.72;;;3.30;;
59099;SDS011;44884;52.730;6.964;2024-03-02T08:05:19;4.65;;;3.67;;
59099;SDS011;44884;52.730;6.964;2024-03-02T08:07:45;5.20;;;3.40;;
59099;SDS011;44884;52.730;6.964;2024-03-02T08:10:12;4.32;;;3.38;;
59099;SDS011;44884;52.730;6.964;2024-03-02T08:12:38;3.75;;;3.40;;
59099;SDS011;44884;52.730;6.964;2024-03-02T08:15:04;3.40;;;2.72;;
59099;SDS011;44884;52.730;6.964;2024-03-02T08:17:30;3.22;;;2.60;;
59099;SDS011;44884;52.730;6.964;2024-03-02T08:19:56;3.80;;;3.20;;
59099;SDS011;44884;52.730;6.964;2024-03-02T08:22:23;4.00;;;3.58;;
59099;SDS011;44884;52.730;6.964;2024-03-02T08:24:52;5.28;;;2.95;;
59099;SDS011;44884;52.730;6.964;2024-03-02T08:27:19;3.92;;;3.10;;
59099;SDS011;44884;52.730;6.964;2024-03-02T08:29:45;6.03;;;3.40;;
59099;SDS011;44884;52.730;6.964;2024-03-02T08:32:11;4.53;;;3.17;;
59099;SDS011;44884;52.730;6.964;2024-03-02T08:34:37;4.43;;;2.97;;
59099;SDS011;44884;52.730;6.964;2024-03-02T08:37:03;3.38;;;2.90;;
59099;SDS011;44884;52.730;6.964;2024-03-02T08:39:30;3.92;;;3.13;;
59099;SDS011;44884;52.730;6.964;2024-03-02T08:41:56;3.80;;;3.28;;
59099;SDS011;44884;52.730;6.964;2024-03-02T08:44:22;2.85;;;2.65;;
59099;SDS011;44884;52.730;6.964;2024-03-02T08:46:48;3.00;;;2.70;;
59099;SDS011;44884;52.730;6.964;2024-03-02T08:49:14;3.40;;;3.10;;
59099;SDS011;44884;52.730;6.964;2024-03-02T08:51:40;3.78;;;3.42;;
59099;SDS011;44884;52.730;6.964;2024-03-02T08:54:06;4.40;;;3.15;;
59099;SDS011;44884;52.730;6.964;2024-03-02T08:56:32;4.15;;;2.92;;
59099;SDS011;44884;52.730;6.964;2024-03-02T08:58:58;6.32;;;3.10;;
59099;SDS011;44884;52.730;6.964;2024-03-02T09:01:24;4.38;;;3.30;;
59099;SDS011;44884;52.730;6.964;2024-03-02T09:03:50;3.45;;;2.88;;
59099;SDS011;44884;52.730;6.964;2024-03-02T09:06:16;3.20;;;2.90;;
59099;SDS011;44884;52.730;6.964;2024-03-02T09:08:43;3.80;;;3.25;;
59099;SDS011;44884;52.730;6.964;2024-03-02T09:11:09;3.65;;;3.05;;
59099;SDS011;44884;52.730;6.964;2024-03-02T09:13:36;4.20;;;3.20;;
59099;SDS011;44884;52.730;6.964;2024-03-02T09:16:03;3.50;;;2.75;;
59099;SDS011;44884;52.730;6.964;2024-03-02T09:18:30;3.47;;;3.03;;
59099;SDS011;44884;52.730;6.964;2024-03-02T09:20:56;3.38;;;2.58;;
59099;SDS011;44884;52.730;6.964;2024-03-02T09:23:22;3.60;;;2.65;;
59099;SDS011;44884;52.730;6.964;2024-03-02T09:25:48;3.33;;;2.50;;
59099;SDS011;44884;52.730;6.964;2024-03-02T09:28:17;4.80;;;3.17;;
59099;SDS011;44884;52.730;6.964;2024-03-02T09:30:43;2.90;;;2.45;;
59099;SDS011;44884;52.730;6.964;2024-03-02T09:33:09;5.80;;;2.22;;
59099;SDS011;44884;52.730;6.964;2024-03-02T09:35:35;2.60;;;2.22;;
59099;SDS011;44884;52.730;6.964;2024-03-02T09:38:01;3.70;;;2.42;;
59099;SDS011;44884;52.730;6.964;2024-03-02T09:40:28;2.45;;;2.25;;
59099;SDS011;44884;52.730;6.964;2024-03-02T09:42:54;3.75;;;3.10;;
59099;SDS011;44884;52.730;6.964;2024-03-02T09:45:22;3.08;;;2.58;;
59099;SDS011;44884;52.730;6.964;2024-03-02T09:47:49;8.40;;;3.47;;
59099;SDS011;44884;52.730;6.964;2024-03-02T09:50:15;3.47;;;2.50;;
59099;SDS011;44884;52.730;6.964;2024-03-02T09:52:44;4.22;;;2.97;;
59099;SDS011;44884;52.730;6.964;2024-03-02T09:55:11;3.88;;;2.40;;
59099;SDS011;44884;52.730;6.964;2024-03-02T09:57:37;2.53;;;2.33;;
59099;SDS011;44884;52.730;6.964;2024-03-02T10:00:03;4.25;;;3.30;;
59099;SDS011;44884;52.730;6.964;2024-03-02T10:02:30;5.40;;;3.20;;
59099;SDS011;44884;52.730;6.964;2024-03-02T10:04:56;6.53;;;3.65;;
59099;SDS011;44884;52.730;6.964;2024-03-02T10:07:22;5.45;;;3.53;;
59099;SDS011;44884;52.730;6.964;2024-03-02T10:09:48;12.15;;;3.17;;
59099;SDS011;44884;52.730;6.964;2024-03-02T10:12:15;4.85;;;3.10;;
59099;SDS011;44884;52.730;6.964;2024-03-02T10:14:42;7.07;;;3.10;;
59099;SDS011;44884;52.730;6.964;2024-03-02T10:17:09;4.47;;;3.20;;
59099;SDS011;44884;52.730;6.964;2024-03-02T10:19:35;4.07;;;2.65;;
59099;SDS011;44884;52.730;6.964;2024-03-02T10:22:05;4.38;;;3.63;;
59099;SDS011;44884;52.730;6.964;2024-03-02T10:24:49;4.70;;;3.30;;
59099;SDS011;44884;52.730;6.964;2024-03-02T10:27:16;4.80;;;3.53;;
59099;SDS011;44884;52.730;6.964;2024-03-02T10:29:42;11.55;;;4.07;;
59099;SDS011;44884;52.730;6.964;2024-03-02T10:32:11;7.40;;;4.22;;
59099;SDS011;44884;52.730;6.964;2024-03-02T10:34:39;5.47;;;3.38;;
59099;SDS011;44884;52.730;6.964;2024-03-02T10:37:05;7.18;;;4.93;;
59099;SDS011;44884;52.730;6.964;2024-03-02T10:39:35;5.72;;;4.18;;
59099;SDS011;44884;52.730;6.964;2024-03-02T10:42:01;6.30;;;4.05;;
59099;SDS011;44884;52.730;6.964;2024-03-02T10:44:31;4.60;;;3.83;;
59099;SDS011;44884;52.730;6.964;2024-03-02T10:46:58;7.95;;;4.10;;
59099;SDS011;44884;52.730;6.964;2024-03-02T10:49:26;4.70;;;3.65;;
59099;SDS011;44884;52.730;6.964;2024-03-02T10:51:53;4.43;;;3.55;;
59099;SDS011;44884;52.730;6.964;2024-03-02T10:54:19;13.70;;;3.65;;
59099;SDS011;44884;52.730;6.964;2024-03-02T10:56:51;4.70;;;3.92;;
59099;SDS011;44884;52.730;6.964;2024-03-02T11:01:59;3.22;;;2.80;;
59099;SDS011;44884;52.730;6.964;2024-03-02T11:04:26;5.97;;;4.15;;
59099;SDS011;44884;52.730;6.964;2024-03-02T11:06:54;3.92;;;3.53;;
59099;SDS011;44884;52.730;6.964;2024-03-02T11:09:22;4.22;;;3.30;;
59099;SDS011;44884;52.730;6.964;2024-03-02T11:11:56;4.40;;;3.72;;
59099;SDS011;44884;52.730;6.964;2024-03-02T11:14:24;4.18;;;3.35;;
59099;SDS011;44884;52.730;6.964;2024-03-02T11:16:51;5.63;;;3.15;;
59099;SDS011;44884;52.730;6.964;2024-03-02T11:19:18;4.78;;;3.20;;
59099;SDS011;44884;52.730;6.964;2024-03-02T11:21:44;6.05;;;3.03;;
59099;SDS011;44884;52.730;6.964;2024-03-02T11:26:49;4.90;;;3.28;;
59099;SDS011;44884;52.730;6.964;2024-03-02T11:32:03;8.25;;;4.05;;
59099;SDS011;44884;52.730;6.964;2024-03-02T11:34:30;3.95;;;3.25;;
59099;SDS011;44884;52.730;6.964;2024-03-02T11:36:57;4.13;;;3.22;;
59099;SDS011;44884;52.730;6.964;2024-03-02T11:39:24;7.55;;;4.13;;
59099;SDS011;44884;52.730;6.964;2024-03-02T11:41:50;3.80;;;3.40;;
59099;SDS011;44884;52.730;6.964;2024-03-02T11:44:16;4.43;;;3.15;;
59099;SDS011;44884;52.730;6.964;2024-03-02T11:46:44;3.97;;;2.97;;
59099;SDS011;44884;52.730;6.964;2024-03-02T11:49:14;3.72;;;3.08;;
59099;SDS011;44884;52.730;6.964;2024-03-02T11:51:50;4.70;;;4.05;;
59099;SDS011;44884;52.730;6.964;2024-03-02T11:54:18;4.18;;;3.20;;
59099;SDS011;44884;52.730;6.964;2024-03-02T11:56:45;15.80;;;4.18;;
59099;SDS011;44884;52.730;6.964;2024-03-02T11:59:11;3.80;;;3.40;;
59099;SDS011;44884;52.730;6.964;2024-03-02T12:01:37;3.88;;;3.38;;
59099;SDS011;44884;52.730;6.964;2024-03-02T12:04:04;3.78;;;3.35;;
59099;SDS011;44884;52.730;6.964;2024-03-02T12:06:31;6.18;;;3.25;;
59099;SDS011;44884;52.730;6.964;2024-03-02T12:08:57;5.55;;;3.42;;
59099;SDS011;44884;52.730;6.964;2024-03-02T12:11:23;3.22;;;2.42;;
59099;SDS011;44884;52.730;6.964;2024-03-02T12:13:52;4.15;;;2.70;;
59099;SDS011;44884;52.730;6.964;2024-03-02T12:16:25;4.90;;;2.75;;
59099;SDS011;44884;52.730;6.964;2024-03-02T12:18:52;5.00;;;3.20;;
59099;SDS011;44884;52.730;6.964;2024-03-02T12:21:18;3.85;;;2.42;;
59099;SDS011;44884;52.730;6.964;2024-03-02T12:23:44;3.22;;;2.92;;
59099;SDS011;44884;52.730;6.964;2024-03-02T12:26:10;2.63;;;2.42;;
59099;SDS011;44884;52.730;6.964;2024-03-02T12:28:36;3.47;;;2.28;;
59099;SDS011;44884;52.730;6.964;2024-03-02T12:31:02;3.10;;;2.42;;
59099;SDS011;44884;52.730;6.964;2024-03-02T12:33:28;3.08;;;2.70;;
59099;SDS011;44884;52.730;6.964;2024-03-02T12:35:56;3.38;;;2.72;;
59099;SDS011;44884;52.730;6.964;2024-03-02T12:38:23;2.92;;;2.45;;
59099;SDS011;44884;52.730;6.964;2024-03-02T12:40:51;2.67;;;2.28;;
59099;SDS011;44884;52.730;6.964;2024-03-02T12:43:17;2.30;;;2.10;;
59099;SDS011;44884;52.730;6.964;2024-03-02T12:45:43;3.53;;;2.42;;
59099;SDS011;44884;52.730;6.964;2024-03-02T12:48:09;2.05;;;1.88;;
59099;SDS011;44884;52.730;6.964;2024-03-02T12:50:35;2.35;;;2.15;;
59099;SDS011;44884;52.730;6.964;2024-03-02T12:53:01;2.40;;;2.10;;
59099;SDS011;44884;52.730;6.964;2024-03-02T12:55:28;2.65;;;2.45;;
59099;SDS011;44884;52.730;6.964;2024-03-02T12:57:54;2.08;;;1.88;;
59099;SDS011;44884;52.730;6.964;2024-03-02T13:00:20;3.00;;;2.15;;
59099;SDS011;44884;52.730;6.964;2024-03-02T13:02:47;4.72;;;2.63;;
59099;SDS011;44884;52.730;6.964;2024-03-02T13:05:16;3.58;;;2.33;;
59099;SDS011;44884;52.730;6.964;2024-03-02T13:07:42;3.10;;;2.50;;
59099;SDS011;44884;52.730;6.964;2024-03-02T13:10:09;3.47;;;2.67;;
59099;SDS011;44884;52.730;6.964;2024-03-02T13:12:36;2.17;;;1.75;;
59099;SDS011;44884;52.730;6.964;2024-03-02T13:15:02;3.40;;;2.38;;
59099;SDS011;44884;52.730;6.964;2024-03-02T13:17:29;3.17;;;2.38;;
59099;SDS011;44884;52.730;6.964;2024-03-02T13:19:55;3.58;;;2.10;;
59099;SDS011;44884;52.730;6.964;2024-03-02T13:22:22;3.17;;;1.83;;
59099;SDS011;44884;52.730;6.964;2024-03-02T13:24:48;2.72;;;1.88;;
59099;SDS011;44884;52.730;6.964;2024-03-02T13:27:15;2.08;;;1.88;;
59099;SDS011;44884;52.730;6.964;2024-03-02T13:29:41;3.88;;;2.33;;
59099;SDS011;44884;52.730;6.964;2024-03-02T13:32:08;2.10;;;1.90;;
59099;SDS011;44884;52.730;6.964;2024-03-02T13:34:35;3.30;;;1.98;;
59099;SDS011;44884;52.730;6.964;2024-03-02T13:37:02;4.15;;;2.38;;
59099;SDS011;44884;52.730;6.964;2024-03-02T13:39:29;3.22;;;2.05;;
59099;SDS011;44884;52.730;6.964;2024-03-02T13:41:57;2.22;;;2.03;;
59099;SDS011;44884;52.730;6.964;2024-03-02T13:44:29;2.55;;;1.80;;
59099;SDS011;44884;52.730;6.964;2024-03-02T13:46:55;4.28;;;2.13;;
59099;SDS011;44884;52.730;6.964;2024-03-02T13:49:21;2.05;;;1.85;;
59099;SDS011;44884;52.730;6.964;2024-03-02T13:51:48;2.58;;;2.10;;
59099;SDS011;44884;52.730;6.964;2024-03-02T13:54:14;4.00;;;2.30;;
59099;SDS011;44884;52.730;6.964;2024-03-02T13:56:40;3.03;;;2.30;;
59099;SDS011;44884;52.730;6.964;2024-03-02T13:59:06;2.65;;;2.10;;
59099;SDS011;44884;52.730;6.964;2024-03-02T14:01:33;4.65;;;2.42;;
59099;SDS011;44884;52.730;6.964;2024-03-02T14:03:59;4.85;;;2.40;;
59099;SDS011;44884;52.730;6.964;2024-03-02T14:06:25;2.45;;;2.22;;
59099;SDS011;44884;52.730;6.964;2024-03-02T14:08:52;4.82;;;2.40;;
59099;SDS011;44884;52.730;6.964;2024-03-02T14:11:18;2.65;;;2.17;;
59099;SDS011;44884;52.730;6.964;2024-03-02T14:13:44;3.90;;;3.35;;
59099;SDS011;44884;52.730;6.964;2024-03-02T14:16:19;5.07;;;2.90;;
59099;SDS011;44884;52.730;6.964;2024-03-02T14:18:45;3.22;;;2.83;;
59099;SDS011;44884;52.730;6.964;2024-03-02T14:21:12;8.02;;;2.38;;
59099;SDS011;44884;52.730;6.964;2024-03-02T14:23:38;4.13;;;2.17;;
59099;SDS011;44884;52.730;6.964;2024-03-02T14:26:04;8.43;;;3.35;;
59099;SDS011;44884;52.730;6.964;2024-03-02T14:28:30;12.70;;;2.80;;
59099;SDS011;44884;52.730;6.964;2024-03-02T14:30:56;8.23;;;2.78;;
59099;SDS011;44884;52.730;6.964;2024-03-02T14:33:22;5.65;;;2.45;;
59099;SDS011;44884;52.730;6.964;2024-03-02T14:35:48;3.22;;;2.45;;
59099;SDS011;44884;52.730;6.964;2024-03-02T14:38:14;3.00;;;1.73;;
59099;SDS011;44884;52.730;6.964;2024-03-02T14:40:40;3.40;;;2.53;;
59099;SDS011;44884;52.730;6.964;2024-03-02T14:43:06;3.33;;;2.40;;
59099;SDS011;44884;52.730;6.964;2024-03-02T14:45:32;5.40;;;2.13;;
59099;SDS011;44884;52.730;6.964;2024-03-02T14:47:58;2.28;;;2.08;;
59099;SDS011;44884;52.730;6.964;2024-03-02T14:50:28;3.80;;;2.20;;
59099;SDS011;44884;52.730;6.964;2024-03-02T14:52:54;2.25;;;2.00;;
59099;SDS011;44884;52.730;6.964;2024-03-02T14:55:23;3.60;;;2.22;;